Time,TemperatureF,DewpointF,PressureIn,WindDirection,WindDirectionDegrees,WindSpeedMPH,WindSpeedGustMPH,Humidity,HourlyPrecipIn,Conditions,Clouds,dailyrainin,SoftwareType,DateUTC
2013-10-25 00:01:00,38.3,28.7,30.13,West,270,1.8,4.9,68,0.00,,,0.00,WUHU216HW,2013-10-25 04:01:00,
2013-10-25 00:06:00,38.0,28.4,30.13,West,270,2.5,3.4,68,0.00,,,0.00,WUHU216HW,2013-10-25 04:06:00,
2013-10-25 00:11:00,37.8,28.2,30.13,SW,225,1.8,3.4,68,0.00,,,0.00,WUHU216HW,2013-10-25 04:11:00,
2013-10-25 00:16:00,38.0,28.4,30.13,West,270,3.8,3.8,68,0.00,,,0.00,WUHU216HW,2013-10-25 04:16:00,
2013-10-25 00:21:00,38.2,28.9,30.13,SSW,203,1.6,3.8,69,0.00,,,0.00,WUHU216HW,2013-10-25 04:21:00,
2013-10-25 00:26:00,38.2,28.9,30.13,South,180,1.8,3.8,69,0.00,,,0.00,WUHU216HW,2013-10-25 04:26:00,
2013-10-25 00:31:00,37.8,29.3,30.13,ESE,113,0.2,2.9,71,0.00,,,0.00,WUHU216HW,2013-10-25 04:31:00,
2013-10-25 00:36:00,36.9,28.5,30.13,ESE,113,0.0,1.8,71,0.00,,,0.00,WUHU216HW,2013-10-25 04:36:00,
2013-10-25 00:41:00,36.0,27.8,30.14,ESE,113,0.0,1.3,72,0.00,,,0.00,WUHU216HW,2013-10-25 04:41:00,
2013-10-25 00:46:00,35.5,27.0,30.13,WSW,248,1.3,1.3,71,0.00,,,0.00,WUHU216HW,2013-10-25 04:46:00,
2013-10-25 00:51:00,35.6,27.8,30.13,WSW,248,0.0,2.5,73,0.00,,,0.00,WUHU216HW,2013-10-25 04:51:00,
2013-10-25 00:56:00,35.5,27.6,30.13,WSW,248,0.0,2.5,73,0.00,,,0.00,WUHU216HW,2013-10-25 04:56:00,
2013-10-25 01:01:00,35.5,28.3,30.14,SW,225,0.4,0.9,75,0.00,,,0.00,WUHU216HW,2013-10-25 05:01:00,
2013-10-25 01:06:00,35.5,28.9,30.14,SSW,203,1.1,1.1,77,0.00,,,0.00,WUHU216HW,2013-10-25 05:06:00,
2013-10-25 01:11:00,35.6,28.8,30.14,SW,225,0.0,1.1,76,0.00,,,0.00,WUHU216HW,2013-10-25 05:11:00,
2013-10-25 01:16:00,35.3,28.5,30.14,ESE,113,0.7,1.6,76,0.00,,,0.00,WUHU216HW,2013-10-25 05:16:00,
2013-10-25 01:21:00,34.7,27.9,30.14,SE,135,0.7,1.6,76,0.00,,,0.00,WUHU216HW,2013-10-25 05:21:00,
2013-10-25 01:26:00,34.4,27.6,30.14,SE,135,0.0,1.6,76,0.00,,,0.00,WUHU216HW,2013-10-25 05:26:00,
2013-10-25 01:31:00,34.2,26.6,30.14,SE,135,0.2,0.7,74,0.00,,,0.00,WUHU216HW,2013-10-25 05:31:00,
2013-10-25 01:36:00,34.0,26.5,30.14,WSW,248,0.4,0.4,74,0.00,,,0.00,WUHU216HW,2013-10-25 05:36:00,
2013-10-25 01:41:00,33.8,27.9,30.14,West,270,1.8,2.0,79,0.00,,,0.00,WUHU216HW,2013-10-25 05:41:00,
2013-10-25 01:46:00,34.2,28.0,30.14,West,270,0.2,2.0,78,0.00,,,0.00,WUHU216HW,2013-10-25 05:46:00,
2013-10-25 01:51:00,34.6,28.0,30.14,WNW,293,2.5,2.9,77,0.00,,,0.00,WUHU216HW,2013-10-25 05:51:00,
2013-10-25 01:56:00,34.9,28.7,30.14,West,270,2.5,3.4,78,0.00,,,0.00,WUHU216HW,2013-10-25 05:56:00,
2013-10-25 02:01:00,35.3,28.7,30.14,WNW,293,1.8,3.6,77,0.00,,,0.00,WUHU216HW,2013-10-25 06:01:00,
2013-10-25 02:06:00,35.1,28.3,30.14,South,180,0.4,3.6,76,0.00,,,0.00,WUHU216HW,2013-10-25 06:06:00,
2013-10-25 02:11:00,34.7,28.2,30.14,South,180,0.0,1.8,77,0.00,,,0.00,WUHU216HW,2013-10-25 06:11:00,
2013-10-25 02:16:00,34.2,27.6,30.14,SE,135,0.4,0.7,77,0.00,,,0.00,WUHU216HW,2013-10-25 06:16:00,
2013-10-25 02:21:00,33.5,26.6,30.14,East,90,0.2,0.4,76,0.00,,,0.00,WUHU216HW,2013-10-25 06:21:00,
2013-10-25 02:26:00,32.9,26.2,30.14,East,90,0.0,0.4,76,0.00,,,0.00,WUHU216HW,2013-10-25 06:26:00,
2013-10-25 02:31:00,32.8,26.0,30.14,East,90,0.0,0.2,76,0.00,,,0.00,WUHU216HW,2013-10-25 06:31:00,
2013-10-25 02:36:00,32.4,25.7,30.15,SSE,158,0.0,0.2,76,0.00,,,0.00,WUHU216HW,2013-10-25 06:36:00,
2013-10-25 02:41:00,32.8,27.5,30.15,WSW,248,1.1,1.1,81,0.00,,,0.00,WUHU216HW,2013-10-25 06:41:00,
2013-10-25 02:46:00,33.1,28.4,30.14,SW,225,0.0,1.3,83,0.00,,,0.00,WUHU216HW,2013-10-25 06:46:00,
2013-10-25 02:51:00,32.9,27.7,30.15,SSE,158,0.2,1.3,81,0.00,,,0.00,WUHU216HW,2013-10-25 06:51:00,
2013-10-25 02:56:00,32.6,27.5,30.15,SSE,158,0.0,0.7,81,0.00,,,0.00,WUHU216HW,2013-10-25 06:56:00,
2013-10-25 03:01:00,32.4,27.0,30.15,SSE,158,0.0,0.7,80,0.00,,,0.00,WUHU216HW,2013-10-25 07:01:00,
2013-10-25 03:06:00,32.0,26.6,30.15,SSE,158,0.0,0.0,80,0.00,,,0.00,WUHU216HW,2013-10-25 07:06:00,
2013-10-25 03:11:00,32.0,27.8,30.15,South,180,0.0,0.2,84,0.00,,,0.00,WUHU216HW,2013-10-25 07:11:00,
2013-10-25 03:16:00,32.4,27.8,30.15,West,270,1.8,1.8,83,0.00,,,0.00,WUHU216HW,2013-10-25 07:16:00,
2013-10-25 03:21:00,32.8,28.7,30.15,WSW,248,0.4,1.8,85,0.00,,,0.00,WUHU216HW,2013-10-25 07:21:00,
2013-10-25 03:26:00,32.8,27.9,30.15,WSW,248,0.0,1.8,82,0.00,,,0.00,WUHU216HW,2013-10-25 07:26:00,
2013-10-25 03:31:00,32.4,27.3,30.15,SW,225,0.0,0.4,81,0.00,,,0.00,WUHU216HW,2013-10-25 07:31:00,
2013-10-25 03:36:00,31.9,26.7,30.15,SSW,203,0.0,0.4,81,0.00,,,0.00,WUHU216HW,2013-10-25 07:36:00,
2013-10-25 03:41:00,31.7,26.6,30.15,SSE,158,0.0,0.4,81,0.00,,,0.00,WUHU216HW,2013-10-25 07:41:00,
2013-10-25 03:46:00,31.3,26.2,30.16,SSE,158,0.0,0.4,81,0.00,,,0.00,WUHU216HW,2013-10-25 07:46:00,
2013-10-25 03:51:00,31.1,25.7,30.15,ENE,68,0.0,0.4,80,0.00,,,0.00,WUHU216HW,2013-10-25 07:51:00,
2013-10-25 03:56:00,31.1,25.7,30.15,ENE,68,0.0,0.4,80,0.00,,,0.00,WUHU216HW,2013-10-25 07:56:00,
2013-10-25 04:01:00,31.0,25.8,30.15,WSW,248,0.4,0.4,81,0.00,,,0.00,WUHU216HW,2013-10-25 08:01:00,
2013-10-25 04:06:00,32.0,27.8,30.15,WSW,248,2.2,3.6,84,0.00,,,0.00,WUHU216HW,2013-10-25 08:06:00,
2013-10-25 04:11:00,33.8,28.5,30.15,WSW,248,0.7,3.6,81,0.00,,,0.00,WUHU216HW,2013-10-25 08:11:00,
2013-10-25 04:16:00,34.9,29.0,30.15,West,270,1.1,2.7,79,0.00,,,0.00,WUHU216HW,2013-10-25 08:16:00,
2013-10-25 04:21:00,35.3,28.7,30.15,SSW,203,0.4,2.7,77,0.00,,,0.00,WUHU216HW,2013-10-25 08:21:00,
2013-10-25 04:26:00,34.6,28.0,30.16,SE,135,0.7,2.5,77,0.00,,,0.00,WUHU216HW,2013-10-25 08:26:00,
2013-10-25 04:31:00,33.3,27.8,30.16,SE,135,1.3,1.3,80,0.00,,,0.00,WUHU216HW,2013-10-25 08:31:00,
2013-10-25 04:36:00,32.2,26.5,30.16,SE,135,0.0,1.3,79,0.00,,,0.00,WUHU216HW,2013-10-25 08:36:00,
2013-10-25 04:41:00,32.0,26.3,30.17,SSE,158,0.2,1.3,79,0.00,,,0.00,WUHU216HW,2013-10-25 08:41:00,
2013-10-25 04:46:00,31.7,26.8,30.17,SE,135,0.7,1.1,82,0.00,,,0.00,WUHU216HW,2013-10-25 08:46:00,
2013-10-25 04:51:00,31.5,26.1,30.17,ESE,113,0.4,1.1,80,0.00,,,0.00,WUHU216HW,2013-10-25 08:51:00,
2013-10-25 04:56:00,31.3,26.2,30.17,ESE,113,0.2,0.9,81,0.00,,,0.00,WUHU216HW,2013-10-25 08:56:00,
2013-10-25 05:01:00,31.1,26.0,30.17,SSW,203,1.1,1.1,81,0.00,,,0.00,WUHU216HW,2013-10-25 09:01:00,
2013-10-25 05:06:00,31.5,26.6,30.17,West,270,0.9,1.3,82,0.00,,,0.00,WUHU216HW,2013-10-25 09:06:00,
2013-10-25 05:11:00,32.4,27.3,30.18,SSW,203,0.0,1.6,81,0.00,,,0.00,WUHU216HW,2013-10-25 09:11:00,
2013-10-25 05:16:00,32.2,27.1,30.18,SSW,203,1.8,1.8,81,0.00,,,0.00,WUHU216HW,2013-10-25 09:16:00,
2013-10-25 05:21:00,31.9,26.7,30.18,SSW,203,0.4,1.8,81,0.00,,,0.00,WUHU216HW,2013-10-25 09:21:00,
2013-10-25 05:26:00,32.2,27.1,30.18,SSW,203,1.6,1.8,81,0.00,,,0.00,WUHU216HW,2013-10-25 09:26:00,
2013-10-25 05:31:00,32.2,26.8,30.18,West,270,1.3,1.6,80,0.00,,,0.00,WUHU216HW,2013-10-25 09:31:00,
2013-10-25 05:36:00,33.5,27.9,30.19,WSW,248,1.6,3.4,80,0.00,,,0.00,WUHU216HW,2013-10-25 09:36:00,
2013-10-25 05:41:00,34.4,27.8,30.19,South,180,0.4,3.4,77,0.00,,,0.00,WUHU216HW,2013-10-25 09:41:00,
2013-10-25 05:46:00,34.0,27.2,30.19,SSW,203,0.4,3.4,76,0.00,,,0.00,WUHU216HW,2013-10-25 09:46:00,
2013-10-25 05:51:00,33.5,27.0,30.19,SW,225,0.4,1.1,77,0.00,,,0.00,WUHU216HW,2013-10-25 09:51:00,
2013-10-25 05:56:00,32.9,26.8,30.19,SSW,203,0.9,1.3,78,0.00,,,0.00,WUHU216HW,2013-10-25 09:56:00,
2013-10-25 06:01:00,32.4,26.3,30.20,SW,225,0.7,1.3,78,0.00,,,0.00,WUHU216HW,2013-10-25 10:01:00,
2013-10-25 06:06:00,32.0,26.3,30.20,SW,225,0.4,1.8,79,0.00,,,0.00,WUHU216HW,2013-10-25 10:06:00,
2013-10-25 06:11:00,32.0,26.3,30.20,SSW,203,1.6,1.8,79,0.00,,,0.00,WUHU216HW,2013-10-25 10:11:00,
2013-10-25 06:16:00,32.0,26.6,30.20,SSE,158,0.0,2.2,80,0.00,,,0.00,WUHU216HW,2013-10-25 10:16:00,
2013-10-25 06:21:00,32.0,26.0,30.20,NNW,338,0.0,2.2,78,0.00,,,0.00,WUHU216HW,2013-10-25 10:21:00,
2013-10-25 06:26:00,31.9,25.8,30.21,SSE,158,0.0,0.9,78,0.00,,,0.00,WUHU216HW,2013-10-25 10:26:00,
2013-10-25 06:31:00,31.7,25.7,30.21,WNW,293,0.4,1.1,78,0.00,,,0.00,WUHU216HW,2013-10-25 10:31:00,
2013-10-25 06:36:00,31.5,25.5,30.21,NW,315,0.4,1.3,78,0.00,,,0.00,WUHU216HW,2013-10-25 10:36:00,
2013-10-25 06:41:00,31.5,25.5,30.21,NW,315,0.0,1.3,78,0.00,,,0.00,WUHU216HW,2013-10-25 10:41:00,
2013-10-25 06:46:00,31.3,25.6,30.21,WSW,248,0.0,0.4,79,0.00,,,0.00,WUHU216HW,2013-10-25 10:46:00,
2013-10-25 06:51:00,31.3,25.6,30.21,SSW,203,0.0,0.4,79,0.00,,,0.00,WUHU216HW,2013-10-25 10:51:00,
2013-10-25 06:56:00,31.3,25.6,30.21,West,270,0.0,0.4,79,0.00,,,0.00,WUHU216HW,2013-10-25 10:56:00,
2013-10-25 07:01:00,31.3,25.9,30.22,WNW,293,0.4,1.8,80,0.00,,,0.00,WUHU216HW,2013-10-25 11:01:00,
2013-10-25 07:06:00,31.5,26.4,30.22,SW,225,0.4,1.8,81,0.00,,,0.00,WUHU216HW,2013-10-25 11:06:00,
2013-10-25 07:11:00,31.5,26.1,30.22,WSW,248,0.9,1.6,80,0.00,,,0.00,WUHU216HW,2013-10-25 11:11:00,
2013-10-25 07:16:00,31.5,26.1,30.22,WSW,248,0.9,1.8,80,0.00,,,0.00,WUHU216HW,2013-10-25 11:16:00,
2013-10-25 07:21:00,31.5,26.1,30.23,SW,225,1.3,1.8,80,0.00,,,0.00,WUHU216HW,2013-10-25 11:21:00,
2013-10-25 07:26:00,31.7,26.8,30.23,SW,225,0.9,1.3,82,0.00,,,0.00,WUHU216HW,2013-10-25 11:26:00,
2013-10-25 07:31:00,32.0,27.2,30.23,WSW,248,1.6,2.0,82,0.00,,,0.00,WUHU216HW,2013-10-25 11:31:00,
2013-10-25 07:36:00,32.0,26.9,30.23,SW,225,1.1,2.0,81,0.00,,,0.00,WUHU216HW,2013-10-25 11:36:00,
2013-10-25 07:41:00,32.4,27.3,30.23,WSW,248,0.4,2.5,81,0.00,,,0.00,WUHU216HW,2013-10-25 11:41:00,
2013-10-25 07:46:00,32.8,27.5,30.23,WSW,248,1.1,2.5,81,0.00,,,0.00,WUHU216HW,2013-10-25 11:46:00,
2013-10-25 07:51:00,32.9,27.5,30.23,West,270,0.9,2.2,80,0.00,,,0.00,WUHU216HW,2013-10-25 11:51:00,
2013-10-25 07:56:00,33.1,27.9,30.23,SW,225,0.7,2.2,81,0.00,,,0.00,WUHU216HW,2013-10-25 11:56:00,
2013-10-25 08:01:00,33.3,28.1,30.23,WSW,248,0.7,1.8,81,0.00,,,0.00,WUHU216HW,2013-10-25 12:01:00,
2013-10-25 08:06:00,33.7,28.1,30.24,South,180,1.1,1.6,80,0.00,,,0.00,WUHU216HW,2013-10-25 12:06:00,
2013-10-25 08:11:00,33.8,27.9,30.24,South,180,0.4,1.6,79,0.00,,,0.00,WUHU216HW,2013-10-25 12:11:00,
2013-10-25 08:16:00,34.0,27.8,30.24,SSW,203,0.2,1.1,78,0.00,,,0.00,WUHU216HW,2013-10-25 12:16:00,
2013-10-25 08:21:00,34.4,28.2,30.24,SSW,203,0.4,0.7,78,0.00,,,0.00,WUHU216HW,2013-10-25 12:21:00,
2013-10-25 08:26:00,34.6,27.7,30.25,SSW,203,1.8,2.5,76,0.00,,,0.00,WUHU216HW,2013-10-25 12:26:00,
2013-10-25 08:31:00,34.7,27.9,30.25,WSW,248,1.8,3.1,76,0.00,,,0.00,WUHU216HW,2013-10-25 12:31:00,
2013-10-25 08:36:00,34.6,28.0,30.25,SW,225,0.7,3.1,77,0.00,,,0.00,WUHU216HW,2013-10-25 12:36:00,
2013-10-25 08:41:00,34.9,28.1,30.25,WSW,248,0.9,2.5,76,0.00,,,0.00,WUHU216HW,2013-10-25 12:41:00,
2013-10-25 08:46:00,35.6,28.8,30.25,South,180,0.2,2.0,76,0.00,,,0.00,WUHU216HW,2013-10-25 12:46:00,
2013-10-25 08:51:00,36.2,29.4,30.25,South,180,0.4,1.6,76,0.00,,,0.00,WUHU216HW,2013-10-25 12:51:00,
2013-10-25 08:56:00,36.7,29.5,30.26,West,270,0.9,1.8,75,0.00,,,0.00,WUHU216HW,2013-10-25 12:56:00,
2013-10-25 09:01:00,37.3,30.1,30.26,SW,225,1.1,1.8,75,0.00,,,0.00,WUHU216HW,2013-10-25 13:01:00,
2013-10-25 09:06:00,37.8,30.2,30.26,SSW,203,1.6,1.8,74,0.00,,,0.00,WUHU216HW,2013-10-25 13:06:00,
2013-10-25 09:11:00,38.2,30.2,30.27,WNW,293,0.9,1.8,73,0.00,,,0.00,WUHU216HW,2013-10-25 13:11:00,
2013-10-25 09:16:00,38.3,29.8,30.27,South,180,1.1,3.1,71,0.00,,,0.00,WUHU216HW,2013-10-25 13:16:00,
2013-10-25 09:21:00,38.3,29.8,30.27,SW,225,2.5,3.8,71,0.00,,,0.00,WUHU216HW,2013-10-25 13:21:00,
2013-10-25 09:26:00,38.5,30.0,30.27,SW,225,1.8,3.8,71,0.00,,,0.00,WUHU216HW,2013-10-25 13:26:00,
2013-10-25 09:31:00,39.4,30.8,30.27,SW,225,2.5,3.4,71,0.00,,,0.00,WUHU216HW,2013-10-25 13:31:00,
2013-10-25 09:36:00,40.1,30.4,30.27,WSW,248,3.4,3.4,68,0.00,,,0.00,WUHU216HW,2013-10-25 13:36:00,
2013-10-25 09:41:00,40.7,30.5,30.27,SSW,203,2.5,5.1,67,0.00,,,0.00,WUHU216HW,2013-10-25 13:41:00,
2013-10-25 09:46:00,41.0,30.5,30.27,WSW,248,3.1,6.3,66,0.00,,,0.00,WUHU216HW,2013-10-25 13:46:00,
2013-10-25 09:51:00,41.4,30.5,30.26,West,270,3.8,6.7,65,0.00,,,0.00,WUHU216HW,2013-10-25 13:51:00,
2013-10-25 09:56:00,42.1,30.8,30.27,SSW,203,2.5,6.7,64,0.00,,,0.00,WUHU216HW,2013-10-25 13:56:00,
2013-10-25 10:01:00,42.5,30.7,30.26,West,270,2.2,6.0,63,0.00,,,0.00,WUHU216HW,2013-10-25 14:01:00,
2013-10-25 10:06:00,42.7,30.5,30.27,South,180,5.4,5.8,62,0.00,,,0.00,WUHU216HW,2013-10-25 14:06:00,
2013-10-25 10:11:00,43.2,30.6,30.27,SW,225,4.7,5.4,61,0.00,,,0.00,WUHU216HW,2013-10-25 14:11:00,
2013-10-25 10:16:00,43.6,31.0,30.26,SSW,203,2.5,5.4,61,0.00,,,0.00,WUHU216HW,2013-10-25 14:16:00,
2013-10-25 10:21:00,44.1,31.5,30.26,WNW,293,4.9,5.4,61,0.00,,,0.00,WUHU216HW,2013-10-25 14:21:00,
2013-10-25 10:26:00,45.4,33.1,30.26,NNW,338,1.1,4.9,62,0.00,,,0.00,WUHU216HW,2013-10-25 14:26:00,
2013-10-25 10:31:00,45.9,31.5,30.26,West,270,1.3,7.4,57,0.00,,,0.00,WUHU216HW,2013-10-25 14:31:00,
2013-10-25 10:36:00,46.1,30.7,30.26,West,270,6.3,7.4,55,0.00,,,0.00,WUHU216HW,2013-10-25 14:36:00,
2013-10-25 10:41:00,46.3,31.8,30.26,NNW,338,0.4,8.1,57,0.00,,,0.00,WUHU216HW,2013-10-25 14:41:00,
2013-10-25 10:46:00,46.8,30.5,30.26,WSW,248,4.7,9.2,53,0.00,,,0.00,WUHU216HW,2013-10-25 14:46:00,
2013-10-25 10:51:00,47.0,32.1,30.26,West,270,4.3,9.2,56,0.00,,,0.00,WUHU216HW,2013-10-25 14:51:00,
2013-10-25 10:56:00,47.2,31.3,30.27,NW,315,6.3,11.2,54,0.00,,,0.00,WUHU216HW,2013-10-25 14:56:00,
2013-10-25 11:01:00,47.5,29.8,30.27,West,270,10.5,11.9,50,0.00,,,0.00,WUHU216HW,2013-10-25 15:01:00,
2013-10-25 11:06:00,47.5,30.3,30.27,West,270,4.5,11.9,51,0.00,,,0.00,WUHU216HW,2013-10-25 15:06:00,
2013-10-25 11:11:00,48.2,31.3,30.27,West,270,4.9,10.5,52,0.00,,,0.00,WUHU216HW,2013-10-25 15:11:00,
2013-10-25 11:16:00,48.6,31.7,30.27,East,90,2.5,10.3,52,0.00,,,0.00,WUHU216HW,2013-10-25 15:16:00,
2013-10-25 11:21:00,49.1,30.8,30.27,SSE,158,1.8,10.3,49,0.00,,,0.00,WUHU216HW,2013-10-25 15:21:00,
2013-10-25 11:26:00,48.8,31.0,30.27,West,270,9.2,10.3,50,0.00,,,0.00,WUHU216HW,2013-10-25 15:26:00,
2013-10-25 11:31:00,49.3,31.5,30.27,WNW,293,3.4,13.6,50,0.00,,,0.00,WUHU216HW,2013-10-25 15:31:00,
2013-10-25 11:36:00,49.3,30.4,30.27,WSW,248,7.2,13.6,48,0.00,,,0.00,WUHU216HW,2013-10-25 15:36:00,
2013-10-25 11:41:00,49.7,31.3,30.27,West,270,10.3,10.3,49,0.00,,,0.00,WUHU216HW,2013-10-25 15:41:00,
2013-10-25 11:46:00,49.7,31.9,30.27,WNW,293,7.6,11.6,50,0.00,,,0.00,WUHU216HW,2013-10-25 15:46:00,
2013-10-25 11:51:00,50.2,31.9,30.27,West,270,8.3,11.6,49,0.00,,,0.00,WUHU216HW,2013-10-25 15:51:00,
2013-10-25 11:56:00,50.0,31.7,30.27,WSW,248,10.3,10.7,49,0.00,,,0.00,WUHU216HW,2013-10-25 15:56:00,
2013-10-25 12:01:00,49.9,31.5,30.27,West,270,10.1,10.7,49,0.00,,,0.00,WUHU216HW,2013-10-25 16:01:00,
2013-10-25 12:06:00,50.4,32.6,30.27,NW,315,3.4,10.1,50,0.00,,,0.00,WUHU216HW,2013-10-25 16:06:00,
2013-10-25 12:11:00,50.4,32.0,30.27,WSW,248,3.4,13.4,49,0.00,,,0.00,WUHU216HW,2013-10-25 16:11:00,
2013-10-25 12:16:00,50.8,32.3,30.27,West,270,6.3,13.4,49,0.00,,,0.00,WUHU216HW,2013-10-25 16:16:00,
2013-10-25 12:21:00,50.2,32.4,30.27,West,270,3.4,18.3,50,0.00,,,0.00,WUHU216HW,2013-10-25 16:21:00,
2013-10-25 12:26:00,50.2,31.9,30.27,SW,225,6.0,18.3,49,0.00,,,0.00,WUHU216HW,2013-10-25 16:26:00,
2013-10-25 12:31:00,50.4,32.0,30.27,WNW,293,6.3,16.8,49,0.00,,,0.00,WUHU216HW,2013-10-25 16:31:00,
2013-10-25 12:36:00,50.8,32.3,30.27,NNW,338,5.1,12.3,49,0.00,,,0.00,WUHU216HW,2013-10-25 16:36:00,
2013-10-25 12:41:00,50.8,32.3,30.27,WSW,248,7.6,11.6,49,0.00,,,0.00,WUHU216HW,2013-10-25 16:41:00,
2013-10-25 12:46:00,50.6,32.1,30.27,WNW,293,3.4,11.0,49,0.00,,,0.00,WUHU216HW,2013-10-25 16:46:00,
2013-10-25 12:51:00,51.7,33.7,30.27,West,270,8.1,11.0,50,0.00,,,0.00,WUHU216HW,2013-10-25 16:51:00,
2013-10-25 12:56:00,51.1,32.0,30.27,WSW,248,6.0,13.4,48,0.00,,,0.00,WUHU216HW,2013-10-25 16:56:00,
2013-10-25 13:01:00,52.0,32.9,30.27,NNE,23,11.4,13.4,48,0.00,,,0.00,WUHU216HW,2013-10-25 17:01:00,
2013-10-25 13:06:00,51.5,32.4,30.27,NNW,338,4.7,11.4,48,0.00,,,0.00,WUHU216HW,2013-10-25 17:06:00,
2013-10-25 13:11:00,51.1,32.0,30.27,WNW,293,3.4,11.4,48,0.00,,,0.00,WUHU216HW,2013-10-25 17:11:00,
2013-10-25 13:16:00,50.8,32.3,30.27,WNW,293,5.4,7.6,49,0.00,,,0.00,WUHU216HW,2013-10-25 17:16:00,
2013-10-25 13:21:00,50.8,32.3,30.26,North,0,3.4,8.1,49,0.00,,,0.00,WUHU216HW,2013-10-25 17:21:00,
2013-10-25 13:26:00,50.4,31.4,30.26,West,270,9.2,9.6,48,0.00,,,0.00,WUHU216HW,2013-10-25 17:26:00,
2013-10-25 13:31:00,51.1,33.2,30.26,WNW,293,4.5,9.6,50,0.00,,,0.00,WUHU216HW,2013-10-25 17:31:00,
2013-10-25 13:36:00,51.3,32.2,30.26,NNW,338,8.3,9.2,48,0.00,,,0.00,WUHU216HW,2013-10-25 17:36:00,
2013-10-25 13:41:00,50.9,32.0,30.26,ENE,68,2.7,8.3,48,0.00,,,0.00,WUHU216HW,2013-10-25 17:41:00,
2013-10-25 13:46:00,50.4,32.0,30.26,NNE,23,1.8,7.8,49,0.00,,,0.00,WUHU216HW,2013-10-25 17:46:00,
2013-10-25 13:51:00,49.9,32.0,30.26,North,0,4.0,7.8,50,0.00,,,0.00,WUHU216HW,2013-10-25 17:51:00,
2013-10-25 13:56:00,50.0,32.2,30.26,WNW,293,2.7,7.6,50,0.00,,,0.00,WUHU216HW,2013-10-25 17:56:00,
2013-10-25 14:01:00,49.7,31.3,30.25,West,270,9.4,11.6,49,0.00,,,0.00,WUHU216HW,2013-10-25 18:01:00,
2013-10-25 14:06:00,49.3,32.0,30.26,WSW,248,1.3,11.6,51,0.00,,,0.00,WUHU216HW,2013-10-25 18:06:00,
2013-10-25 14:11:00,49.3,32.0,30.25,NW,315,2.5,10.3,51,0.00,,,0.00,WUHU216HW,2013-10-25 18:11:00,
2013-10-25 14:16:00,49.5,32.6,30.25,WNW,293,1.1,8.5,52,0.00,,,0.00,WUHU216HW,2013-10-25 18:16:00,
2013-10-25 14:21:00,49.3,32.0,30.25,West,270,8.5,8.5,51,0.00,,,0.00,WUHU216HW,2013-10-25 18:21:00,
2013-10-25 14:26:00,50.0,33.1,30.25,WNW,293,2.5,8.5,52,0.00,,,0.00,WUHU216HW,2013-10-25 18:26:00,
2013-10-25 14:31:00,50.4,32.0,30.25,NE,45,4.9,10.1,49,0.00,,,0.00,WUHU216HW,2013-10-25 18:31:00,
2013-10-25 14:36:00,50.4,32.6,30.25,WSW,248,4.0,10.1,50,0.00,,,0.00,WUHU216HW,2013-10-25 18:36:00,
2013-10-25 14:41:00,51.3,32.8,30.25,NE,45,1.8,8.9,49,0.00,,,0.00,WUHU216HW,2013-10-25 18:41:00,
2013-10-25 14:46:00,51.3,31.7,30.25,West,270,5.1,7.6,47,0.00,,,0.00,WUHU216HW,2013-10-25 18:46:00,
2013-10-25 14:51:00,50.0,31.2,30.26,WSW,248,11.6,11.6,48,0.00,,,0.00,WUHU216HW,2013-10-25 18:51:00,
2013-10-25 14:56:00,48.8,30.4,30.26,WNW,293,5.8,12.8,49,0.00,,,0.00,WUHU216HW,2013-10-25 18:56:00,
2013-10-25 15:01:00,49.3,31.0,30.26,NNW,338,5.4,12.8,49,0.00,,,0.00,WUHU216HW,2013-10-25 19:01:00,
2013-10-25 15:06:00,49.0,30.6,30.26,NW,315,3.8,7.2,49,0.00,,,0.00,WUHU216HW,2013-10-25 19:06:00,
2013-10-25 15:11:00,49.0,31.1,30.26,WNW,293,3.4,9.6,50,0.00,,,0.00,WUHU216HW,2013-10-25 19:11:00,
2013-10-25 15:16:00,50.8,32.3,30.25,WNW,293,3.4,9.6,49,0.00,,,0.00,WUHU216HW,2013-10-25 19:16:00,
2013-10-25 15:21:00,51.5,31.9,30.25,West,270,1.1,8.3,47,0.00,,,0.00,WUHU216HW,2013-10-25 19:21:00,
2013-10-25 15:26:00,52.0,32.3,30.26,West,270,4.3,8.3,47,0.00,,,0.00,WUHU216HW,2013-10-25 19:26:00,
2013-10-25 15:31:00,52.4,31.5,30.25,North,0,3.1,7.6,45,0.00,,,0.00,WUHU216HW,2013-10-25 19:31:00,
2013-10-25 15:36:00,52.2,30.8,30.25,NNE,23,2.7,7.6,44,0.00,,,0.00,WUHU216HW,2013-10-25 19:36:00,
2013-10-25 15:41:00,51.8,31.1,30.25,North,0,2.0,7.8,45,0.00,,,0.00,WUHU216HW,2013-10-25 19:41:00,
2013-10-25 15:46:00,51.3,30.6,30.26,West,270,6.9,7.8,45,0.00,,,0.00,WUHU216HW,2013-10-25 19:46:00,
2013-10-25 15:51:00,51.3,31.2,30.25,WNW,293,7.2,7.6,46,0.00,,,0.00,WUHU216HW,2013-10-25 19:51:00,
2013-10-25 15:56:00,51.7,32.1,30.25,WNW,293,4.5,7.6,47,0.00,,,0.00,WUHU216HW,2013-10-25 19:56:00,
2013-10-25 16:01:00,52.0,31.8,30.26,WSW,248,5.8,8.5,46,0.00,,,0.00,WUHU216HW,2013-10-25 20:01:00,
2013-10-25 16:06:00,52.2,32.0,30.26,West,270,2.5,8.5,46,0.00,,,0.00,WUHU216HW,2013-10-25 20:06:00,
2013-10-25 16:11:00,52.4,31.5,30.26,West,270,3.1,6.9,45,0.00,,,0.00,WUHU216HW,2013-10-25 20:11:00,
2013-10-25 16:16:00,52.0,30.1,30.26,WSW,248,8.7,9.2,43,0.00,,,0.00,WUHU216HW,2013-10-25 20:16:00,
2013-10-25 16:21:00,51.3,29.4,30.27,WNW,293,6.0,11.6,43,0.00,,,0.00,WUHU216HW,2013-10-25 20:21:00,
2013-10-25 16:26:00,51.1,29.3,30.27,West,270,6.7,13.4,43,0.00,,,0.00,WUHU216HW,2013-10-25 20:26:00,
2013-10-25 16:31:00,51.1,29.3,30.27,West,270,2.5,13.4,43,0.00,,,0.00,WUHU216HW,2013-10-25 20:31:00,
2013-10-25 16:36:00,51.5,29.6,30.27,West,270,11.2,11.2,43,0.00,,,0.00,WUHU216HW,2013-10-25 20:36:00,
2013-10-25 16:41:00,51.1,29.9,30.26,West,270,5.8,11.2,44,0.00,,,0.00,WUHU216HW,2013-10-25 20:41:00,
2013-10-25 16:46:00,50.8,30.1,30.26,West,270,3.4,11.2,45,0.00,,,0.00,WUHU216HW,2013-10-25 20:46:00,
2013-10-25 16:51:00,50.2,29.1,30.26,West,270,6.9,10.5,44,0.00,,,0.00,WUHU216HW,2013-10-25 20:51:00,
2013-10-25 16:56:00,49.9,29.3,30.26,West,270,1.6,10.5,45,0.00,,,0.00,WUHU216HW,2013-10-25 20:56:00,
2013-10-25 17:01:00,49.7,29.1,30.26,West,270,6.9,8.5,45,0.00,,,0.00,WUHU216HW,2013-10-25 21:01:00,
2013-10-25 17:06:00,49.7,29.1,30.26,WSW,248,6.3,7.4,45,0.00,,,0.00,WUHU216HW,2013-10-25 21:06:00,
2013-10-25 17:11:00,50.0,30.5,30.26,NNW,338,2.5,7.4,47,0.00,,,0.00,WUHU216HW,2013-10-25 21:11:00,
2013-10-25 17:16:00,50.0,29.4,30.26,West,270,2.5,7.6,45,0.00,,,0.00,WUHU216HW,2013-10-25 21:16:00,
2013-10-25 17:21:00,50.0,30.0,30.27,NNE,23,1.6,7.6,46,0.00,,,0.00,WUHU216HW,2013-10-25 21:21:00,
2013-10-25 17:26:00,49.9,29.8,30.27,NNE,23,2.7,5.6,46,0.00,,,0.00,WUHU216HW,2013-10-25 21:26:00,
2013-10-25 17:31:00,49.7,29.1,30.27,NNE,23,2.9,7.6,45,0.00,,,0.00,WUHU216HW,2013-10-25 21:31:00,
2013-10-25 17:36:00,49.5,29.4,30.27,West,270,4.0,7.6,46,0.00,,,0.00,WUHU216HW,2013-10-25 21:36:00,
2013-10-25 17:41:00,49.3,29.4,30.27,NNE,23,1.8,6.5,46,0.00,,,0.00,WUHU216HW,2013-10-25 21:41:00,
2013-10-25 17:46:00,49.0,29.5,30.28,WSW,248,1.8,4.9,47,0.00,,,0.00,WUHU216HW,2013-10-25 21:46:00,
2013-10-25 17:51:00,48.8,29.9,30.28,NW,315,0.9,5.1,48,0.00,,,0.00,WUHU216HW,2013-10-25 21:51:00,
2013-10-25 17:56:00,48.4,29.5,30.28,NNW,338,5.1,5.1,48,0.00,,,0.00,WUHU216HW,2013-10-25 21:56:00,
2013-10-25 18:01:00,47.5,29.3,30.28,WSW,248,0.9,5.1,49,0.00,,,0.00,WUHU216HW,2013-10-25 22:01:00,
2013-10-25 18:07:00,46.8,29.2,30.28,North,0,4.0,4.9,50,0.00,,,0.00,WUHU216HW,2013-10-25 22:07:00,
2013-10-25 18:12:00,46.4,29.3,30.28,NW,315,0.9,4.9,51,0.00,,,0.00,WUHU216HW,2013-10-25 22:12:00,
2013-10-25 18:17:00,46.1,29.3,30.29,North,0,2.0,4.0,52,0.00,,,0.00,WUHU216HW,2013-10-25 22:17:00,
2013-10-25 18:22:00,45.5,29.3,30.29,WSW,248,1.1,2.9,53,0.00,,,0.00,WUHU216HW,2013-10-25 22:22:00,
2013-10-25 18:26:00,45.0,28.9,30.29,West,270,0.4,3.1,53,0.00,,,0.00,WUHU216HW,2013-10-25 22:26:00,
2013-10-25 18:31:00,44.8,29.2,30.29,North,0,1.6,3.1,54,0.00,,,0.00,WUHU216HW,2013-10-25 22:31:00,
2013-10-25 18:36:00,44.5,28.4,30.29,East,90,0.4,2.0,53,0.00,,,0.00,WUHU216HW,2013-10-25 22:36:00,
2013-10-25 18:41:00,44.1,28.0,30.29,WNW,293,0.2,2.5,53,0.00,,,0.00,WUHU216HW,2013-10-25 22:41:00,
2013-10-25 18:46:00,43.9,27.9,30.30,North,0,0.9,2.5,53,0.00,,,0.00,WUHU216HW,2013-10-25 22:46:00,
2013-10-25 18:51:00,43.6,28.0,30.30,NNE,23,1.1,2.2,54,0.00,,,0.00,WUHU216HW,2013-10-25 22:51:00,
2013-10-25 18:56:00,43.4,27.8,30.29,NNW,338,0.9,2.0,54,0.00,,,0.00,WUHU216HW,2013-10-25 22:56:00,
2013-10-25 19:01:00,43.2,27.6,30.30,North,0,1.8,2.0,54,0.00,,,0.00,WUHU216HW,2013-10-25 23:01:00,
2013-10-25 19:06:00,43.0,27.9,30.30,ENE,68,0.2,3.4,55,0.00,,,0.00,WUHU216HW,2013-10-25 23:06:00,
2013-10-25 19:11:00,42.8,28.2,30.30,West,270,1.8,3.4,56,0.00,,,0.00,WUHU216HW,2013-10-25 23:11:00,
2013-10-25 19:16:00,42.7,28.0,30.30,West,270,0.2,3.4,56,0.00,,,0.00,WUHU216HW,2013-10-25 23:16:00,
2013-10-25 19:21:00,42.5,28.3,30.30,West,270,1.8,3.4,57,0.00,,,0.00,WUHU216HW,2013-10-25 23:21:00,
2013-10-25 19:26:00,42.1,28.4,30.30,West,270,1.1,2.5,58,0.00,,,0.00,WUHU216HW,2013-10-25 23:26:00,
2013-10-25 19:31:00,42.1,28.4,30.30,West,270,0.4,2.2,58,0.00,,,0.00,WUHU216HW,2013-10-25 23:31:00,
2013-10-25 19:37:00,41.9,28.2,30.30,NE,45,0.2,2.2,58,0.00,,,0.00,WUHU216HW,2013-10-25 23:37:00,
2013-10-25 19:42:00,41.8,28.4,30.30,NNW,338,2.5,2.7,59,0.00,,,0.00,WUHU216HW,2013-10-25 23:42:00,
2013-10-25 19:47:00,41.8,28.9,30.30,WSW,248,0.0,2.7,60,0.00,,,0.00,WUHU216HW,2013-10-25 23:47:00,
2013-10-25 19:52:00,41.6,28.7,30.30,WNW,293,0.4,2.5,60,0.00,,,0.00,WUHU216HW,2013-10-25 23:52:00,
2013-10-25 19:57:00,41.4,28.6,30.30,West,270,0.0,2.2,60,0.00,,,0.00,WUHU216HW,2013-10-25 23:57:00,
2013-10-25 20:02:00,41.0,28.3,30.30,West,270,0.0,1.3,60,0.00,,,0.00,WUHU216HW,2013-10-26 00:02:00,
2013-10-25 20:07:00,40.7,27.9,30.30,West,270,0.2,0.9,60,0.00,,,0.00,WUHU216HW,2013-10-26 00:07:00,
2013-10-25 20:12:00,40.1,28.1,30.30,WNW,293,0.4,0.4,62,0.00,,,0.00,WUHU216HW,2013-10-26 00:12:00,
2013-10-25 20:17:00,39.6,27.2,30.30,West,270,0.0,0.4,61,0.00,,,0.00,WUHU216HW,2013-10-26 00:17:00,
2013-10-25 20:22:00,39.2,27.6,30.30,WSW,248,2.2,2.2,63,0.00,,,0.00,WUHU216HW,2013-10-26 00:22:00,
2013-10-25 20:27:00,39.2,27.6,30.30,WNW,293,0.0,2.2,63,0.00,,,0.00,WUHU216HW,2013-10-26 00:27:00,
2013-10-25 20:32:00,38.9,27.3,30.30,West,270,0.7,2.2,63,0.00,,,0.00,WUHU216HW,2013-10-26 00:32:00,
2013-10-25 20:37:00,38.5,26.9,30.30,WNW,293,0.4,1.1,63,0.00,,,0.00,WUHU216HW,2013-10-26 00:37:00,
2013-10-25 20:42:00,38.5,26.9,30.30,West,270,0.0,1.1,63,0.00,,,0.00,WUHU216HW,2013-10-26 00:42:00,
2013-10-25 20:47:00,38.5,26.9,30.30,West,270,0.0,0.7,63,0.00,,,0.00,WUHU216HW,2013-10-26 00:47:00,
2013-10-25 20:52:00,38.3,26.8,30.30,West,270,0.0,0.7,63,0.00,,,0.00,WUHU216HW,2013-10-26 00:52:00,
2013-10-25 20:57:00,38.0,26.8,30.30,WSW,248,0.0,0.2,64,0.00,,,0.00,WUHU216HW,2013-10-26 00:57:00,
2013-10-25 21:02:00,37.8,26.3,30.30,WSW,248,0.0,0.2,63,0.00,,,0.00,WUHU216HW,2013-10-26 01:02:00,
2013-10-25 21:07:00,37.8,26.3,30.30,NNE,23,0.0,0.2,63,0.00,,,0.00,WUHU216HW,2013-10-26 01:07:00,
2013-10-25 21:12:00,37.3,25.8,30.30,NNE,23,0.0,0.2,63,0.00,,,0.00,WUHU216HW,2013-10-26 01:12:00,
2013-10-25 21:17:00,36.7,25.3,30.30,NNE,23,0.0,0.0,63,0.00,,,0.00,WUHU216HW,2013-10-26 01:17:00,
2013-10-25 21:22:00,36.4,25.4,30.30,NNE,23,0.0,0.0,64,0.00,,,0.00,WUHU216HW,2013-10-26 01:22:00,
2013-10-25 21:27:00,35.6,25.0,30.30,NNE,23,0.2,0.4,65,0.00,,,0.00,WUHU216HW,2013-10-26 01:27:00,
2013-10-25 21:32:00,35.3,25.0,30.30,SW,225,0.0,0.4,66,0.00,,,0.00,WUHU216HW,2013-10-26 01:32:00,
2013-10-25 21:37:00,35.3,25.0,30.30,West,270,0.2,0.4,66,0.00,,,0.00,WUHU216HW,2013-10-26 01:37:00,
2013-10-25 21:42:00,35.5,25.9,30.30,West,270,0.4,0.4,68,0.00,,,0.00,WUHU216HW,2013-10-26 01:42:00,
2013-10-25 21:47:00,35.5,25.6,30.30,WSW,248,0.2,0.4,67,0.00,,,0.00,WUHU216HW,2013-10-26 01:47:00,
2013-10-25 21:52:00,35.3,25.4,30.30,WSW,248,0.0,0.4,67,0.00,,,0.00,WUHU216HW,2013-10-26 01:52:00,
2013-10-25 21:57:00,35.3,25.7,30.30,WSW,248,0.0,0.2,68,0.00,,,0.00,WUHU216HW,2013-10-26 01:57:00,
2013-10-25 22:02:00,35.1,27.5,30.30,SE,135,0.7,0.7,74,0.00,,,0.00,WUHU216HW,2013-10-26 02:02:00,
2013-10-25 22:07:00,34.9,26.5,30.30,SE,135,0.2,0.7,71,0.00,,,0.00,WUHU216HW,2013-10-26 02:07:00,
2013-10-25 22:12:00,34.9,26.7,30.30,WSW,248,0.0,0.4,72,0.00,,,0.00,WUHU216HW,2013-10-26 02:12:00,
2013-10-25 22:17:00,34.9,27.1,30.30,SW,225,0.2,0.4,73,0.00,,,0.00,WUHU216HW,2013-10-26 02:17:00,
2013-10-25 22:22:00,35.1,27.9,30.30,SW,225,0.0,0.4,75,0.00,,,0.00,WUHU216HW,2013-10-26 02:22:00,
2013-10-25 22:27:00,34.9,27.7,30.30,SW,225,0.2,0.4,75,0.00,,,0.00,WUHU216HW,2013-10-26 02:27:00,
2013-10-25 22:32:00,34.9,26.7,30.30,SW,225,0.0,0.4,72,0.00,,,0.00,WUHU216HW,2013-10-26 02:32:00,
2013-10-25 22:37:00,34.6,26.4,30.30,SW,225,0.0,0.2,72,0.00,,,0.00,WUHU216HW,2013-10-26 02:37:00,
2013-10-25 22:42:00,34.2,27.4,30.30,SSW,203,0.4,0.7,76,0.00,,,0.00,WUHU216HW,2013-10-26 02:42:00,
2013-10-25 22:47:00,33.8,26.6,30.30,SSW,203,0.0,0.7,75,0.00,,,0.00,WUHU216HW,2013-10-26 02:47:00,
2013-10-25 22:52:00,33.7,26.2,30.30,SSW,203,0.0,0.4,74,0.00,,,0.00,WUHU216HW,2013-10-26 02:52:00,
2013-10-25 22:57:00,33.5,25.7,30.30,SSW,203,0.0,0.2,73,0.00,,,0.00,WUHU216HW,2013-10-26 02:57:00,
2013-10-25 23:02:00,33.3,25.5,30.30,SSW,203,0.0,0.0,73,0.00,,,0.00,WUHU216HW,2013-10-26 03:02:00,
2013-10-25 23:07:00,32.9,25.2,30.30,SSW,203,0.0,0.0,73,0.00,,,0.00,WUHU216HW,2013-10-26 03:07:00,
2013-10-25 23:12:00,32.8,25.0,30.30,SSW,203,0.0,0.0,73,0.00,,,0.00,WUHU216HW,2013-10-26 03:12:00,
2013-10-25 23:17:00,32.6,24.8,30.30,SSW,203,0.0,0.0,73,0.00,,,0.00,WUHU216HW,2013-10-26 03:17:00,
2013-10-25 23:22:00,32.6,25.2,30.30,SSW,203,0.0,0.0,74,0.00,,,0.00,WUHU216HW,2013-10-26 03:22:00,
2013-10-25 23:27:00,32.6,26.8,30.30,SSW,203,0.0,0.2,79,0.00,,,0.00,WUHU216HW,2013-10-26 03:27:00,
2013-10-25 23:32:00,32.6,26.2,30.30,SSW,203,0.0,0.2,77,0.00,,,0.00,WUHU216HW,2013-10-26 03:32:00,
2013-10-25 23:37:00,32.4,26.3,30.30,SW,225,0.4,0.4,78,0.00,,,0.00,WUHU216HW,2013-10-26 03:37:00,
2013-10-25 23:42:00,32.8,28.2,30.30,WSW,248,0.2,0.9,83,0.00,,,0.00,WUHU216HW,2013-10-26 03:42:00,
2013-10-25 23:47:00,32.8,28.7,30.30,SW,225,0.2,0.9,85,0.00,,,0.00,WUHU216HW,2013-10-26 03:47:00,
2013-10-25 23:52:00,32.8,28.2,30.30,SW,225,0.0,0.4,83,0.00,,,0.00,WUHU216HW,2013-10-26 03:52:00,
2013-10-25 23:57:00,32.8,28.4,30.30,SW,225,0.2,0.4,84,0.00,,,0.00,WUHU216HW,2013-10-26 03:57:00,